Startpagina
METAR-TAF:

METAR-TAF

Vliegvelden :

Aeroporto Internacional Hercílio Luz

Florianópolis, Santa Catarina, Brazilië

breedte: 27-40S, lengte: 048-33W, hoogte: 5 m

Actueel weer

Dit bericht is 1 uur en het 2 minuten geleden gemaakt, om 07:00 UTC
Wind 10 kt uit het noordnoordwesten
Temperatuur 21°C
Vochtigheid 88%
Druk 1012 hPa
Zicht 10 km of meer
Gebroken wolken op 2000 ft

METAR: SBFL 230700Z 34010KT 9999 BKN020 21/19 Q1012

Tijdstip: 05:02 (08:02 UTC)

Verwachting

Dit bericht is 6 uur en het 32 minuten geleden gemaakt, om 01:30 UTC
Verwachting geldig van 23 om 06 UTC tot 24 om 06 UTC
Wind 8 kt uit het noorden
Zicht 10 km of meer
Verspreide wolken op 900 ft
Wijzigt naar
van 23 om 09 UTC tot 23 om 11 UTC
Zicht 10 km of meer
geen wolken onder 1500 m en geen cumulonimbus
Wijzigt naar
van 23 om 14 UTC tot 23 om 16 UTC
Zicht 10 km of meer
Verspreide wolken op 3500 ft

TAF: SBFL 230130Z 2306/2406 36008KT 9999 SCT009 TN18/2308Z TX24/2318Z BECMG 2309/2311 CAVOK BECMG 2314/2316 9999 SCT035 RMK PEB

Waarnemingen en weersverwachtingen van meer dan 4000 vliegvelden (METAR en TAF).

De beschikbare stations zijn de gele en rode punten op de kaart.

Ga met uw muis naar het station om de naam te zien.

Klik dan om waarnemingen en weersverwachtingen te zien.

kaart wijzigen: klik op de groene knoppen met een zwart kruis om in te zoomen, op de groene knop met een streepje om uit te zoomen of op de groene pijlen voor aangrenzende kaarten.


METAR-TAF: